Time;durP1;ratioP1;P1;durP2;ratioP2;P2;SDS_P1;SDS_P2;PMS_P1;PMS_P2;Temp;Humidity;BMP_temperature;BMP_pressure;BME280_temperature;BME280_humidity;BME280_pressure;Samples;Min_cycle;Max_cycle;Signal;HPM_P1;HPM_P2
2023/05/20 00:01:59;;;;;;;4.13;2.30;;;13.50;90.70;;;;;;4983194;28;20065;-73
2023/05/20 00:04:25;;;;;;;3.42;1.95;;;13.40;90.80;;;;;;4957206;28;20100;-73
2023/05/20 00:06:50;;;;;;;3.60;2.00;;;13.40;91.00;;;;;;4958568;28;20081;-73
2023/05/20 00:09:16;;;;;;;6.22;2.20;;;13.40;91.20;;;;;;4960430;28;20108;-73
2023/05/20 00:11:42;;;;;;;10.73;1.77;;;13.40;91.30;;;;;;4990648;28;20061;-73
2023/05/20 00:14:08;;;;;;;4.50;2.00;;;13.30;91.40;;;;;;4960063;28;20120;-73
2023/05/20 00:16:33;;;;;;;3.92;1.70;;;13.30;91.70;;;;;;4969881;28;20054;-73
2023/05/20 00:18:59;;;;;;;3.65;2.10;;;13.30;91.60;;;;;;4967373;28;20443;-73
2023/05/20 00:21:25;;;;;;;3.05;1.80;;;13.30;91.80;;;;;;4956991;28;20045;-73
2023/05/20 00:23:51;;;;;;;4.53;1.95;;;13.20;91.60;;;;;;4973803;28;20348;-73
2023/05/20 00:26:16;;;;;;;4.70;1.70;;;13.20;91.90;;;;;;4948994;28;20454;-73
2023/05/20 00:28:42;;;;;;;5.68;2.10;;;13.20;91.90;;;;;;4966020;28;20514;-73
2023/05/20 00:31:08;;;;;;;6.32;2.25;;;13.20;91.80;;;;;;4939475;28;20154;-73
2023/05/20 00:33:35;;;;;;;6.28;2.40;;;13.20;91.90;;;;;;4960766;28;20053;-73
2023/05/20 00:36:01;;;;;;;5.03;2.20;;;13.20;92.00;;;;;;4994222;28;20049;-73
2023/05/20 00:38:26;;;;;;;4.85;2.15;;;13.10;92.10;;;;;;4966585;28;20045;-73
2023/05/20 00:40:52;;;;;;;5.20;2.13;;;13.10;92.20;;;;;;4960455;28;20045;-73
2023/05/20 00:43:19;;;;;;;4.65;1.88;;;13.00;92.30;;;;;;4961349;28;20046;-73
2023/05/20 00:45:45;;;;;;;4.95;2.00;;;13.00;92.30;;;;;;4975750;28;20049;-73
2023/05/20 00:48:11;;;;;;;5.40;2.20;;;13.00;92.40;;;;;;4983884;28;20505;-73
2023/05/20 00:50:37;;;;;;;6.10;2.60;;;13.00;92.30;;;;;;4973366;28;20099;-73
2023/05/20 00:53:02;;;;;;;4.93;2.08;;;13.00;92.50;;;;;;4967616;28;20041;-73
2023/05/20 00:55:28;;;;;;;4.68;2.20;;;12.90;92.60;;;;;;4995601;28;20057;-73
2023/05/20 00:57:54;;;;;;;6.43;2.28;;;13.00;92.90;;;;;;4982160;28;20045;-73
2023/05/20 01:00:20;;;;;;;3.53;2.25;;;13.00;92.80;;;;;;4963718;28;20038;-73
2023/05/20 01:02:45;;;;;;;5.57;2.10;;;13.00;92.80;;;;;;4995453;28;20042;-73
2023/05/20 01:05:11;;;;;;;6.13;2.30;;;12.90;92.80;;;;;;4970313;28;20494;-73
2023/05/20 01:07:37;;;;;;;3.83;2.38;;;12.90;93.00;;;;;;4997373;28;20083;-73
2023/05/20 01:10:03;;;;;;;4.82;2.15;;;12.90;93.00;;;;;;4966668;28;20056;-73
2023/05/20 01:12:39;;;;;;;5.38;2.15;;;12.80;93.00;;;;;;4976457;28;20060;-73
2023/05/20 01:15:10;;;;;;;5.25;2.10;;;12.80;93.00;;;;;;4967814;28;20050;-73
2023/05/20 01:17:43;;;;;;;5.85;2.00;;;12.90;92.90;;;;;;4966991;28;20038;-73
2023/05/20 01:20:09;;;;;;;6.65;2.47;;;12.90;93.20;;;;;;4953516;28;20652;-73
2023/05/20 01:22:54;;;;;;;7.97;2.22;;;12.90;93.20;;;;;;4952858;28;20046;-73
2023/05/20 01:25:20;;;;;;;6.22;2.47;;;12.80;93.40;;;;;;4962054;28;20061;-73
2023/05/20 01:27:47;;;;;;;6.68;2.78;;;12.80;93.60;;;;;;4950378;28;20045;-73
2023/05/20 01:30:14;;;;;;;6.78;2.60;;;12.80;93.50;;;;;;4977802;28;20049;-73
2023/05/20 01:32:48;;;;;;;6.47;2.63;;;12.80;93.60;;;;;;4980069;28;20049;-73
2023/05/20 01:35:15;;;;;;;5.97;2.42;;;12.80;93.60;;;;;;4959548;28;20046;-73
2023/05/20 01:37:41;;;;;;;4.78;2.30;;;12.80;93.50;;;;;;4976929;28;20061;-73
2023/05/20 01:40:07;;;;;;;3.72;2.22;;;12.80;93.80;;;;;;4960248;28;20513;-73
2023/05/20 01:42:33;;;;;;;10.98;2.30;;;12.80;93.60;;;;;;4992136;28;20049;-73
2023/05/20 01:44:59;;;;;;;3.92;2.25;;;12.90;93.60;;;;;;4976111;28;20045;-73
2023/05/20 01:47:25;;;;;;;4.10;2.10;;;12.90;93.90;;;;;;4959644;28;20096;-73
2023/05/20 01:49:52;;;;;;;5.22;2.65;;;12.90;93.80;;;;;;4949778;28;20038;-73
2023/05/20 01:52:20;;;;;;;4.07;1.90;;;12.90;93.90;;;;;;4966576;28;20046;-73
2023/05/20 01:54:49;;;;;;;6.45;2.20;;;12.90;93.90;;;;;;4972729;28;20089;-73
2023/05/20 01:57:19;;;;;;;8.48;2.50;;;12.90;94.00;;;;;;4978920;28;20137;-73
2023/05/20 01:59:45;;;;;;;3.72;1.88;;;12.90;94.00;;;;;;4961376;28;20120;-73
2023/05/20 02:02:11;;;;;;;4.65;2.10;;;12.90;93.90;;;;;;4936818;28;20463;-73
2023/05/20 02:04:36;;;;;;;5.93;1.88;;;12.90;94.10;;;;;;4979162;28;20077;-73
2023/05/20 02:07:02;;;;;;;4.10;2.10;;;12.90;94.10;;;;;;5000049;28;20049;-73
2023/05/20 02:09:28;;;;;;;3.90;2.30;;;12.90;94.10;;;;;;4961332;28;20374;-73
2023/05/20 02:11:54;;;;;;;3.40;1.95;;;12.90;94.20;;;;;;4982997;28;20046;-73
2023/05/20 02:14:19;;;;;;;4.32;2.33;;;12.90;94.20;;;;;;4961167;28;20061;-73
2023/05/20 02:16:46;;;;;;;3.88;2.13;;;12.90;94.50;;;;;;4955327;28;20073;-73
2023/05/20 02:19:11;;;;;;;6.57;2.20;;;12.90;94.40;;;;;;4976620;28;20056;-73
2023/05/20 02:21:40;;;;;;;3.97;2.10;;;12.90;94.40;;;;;;4963828;28;20692;-73
2023/05/20 02:24:06;;;;;;;4.65;2.10;;;12.90;94.50;;;;;;4972346;28;20108;-73
2023/05/20 02:26:33;;;;;;;7.25;2.25;;;12.90;94.50;;;;;;4958142;28;20053;-73
2023/05/20 02:28:59;;;;;;;4.07;2.20;;;12.90;94.60;;;;;;4974668;28;20061;-73
2023/05/20 02:31:24;;;;;;;10.63;2.97;;;12.90;94.70;;;;;;4982518;28;20041;-73
2023/05/20 02:33:50;;;;;;;12.50;3.17;;;12.90;94.80;;;;;;4975499;28;20100;-73
2023/05/20 02:36:16;;;;;;;4.70;2.10;;;12.90;94.70;;;;;;4957596;28;20069;-73
2023/05/20 02:38:42;;;;;;;3.67;2.58;;;12.90;94.80;;;;;;4993189;28;20127;-73
2023/05/20 02:41:08;;;;;;;3.45;2.08;;;12.90;94.80;;;;;;4972434;28;20057;-73
2023/05/20 02:43:35;;;;;;;3.92;2.10;;;12.80;94.90;;;;;;5015244;28;20038;-73
2023/05/20 02:46:01;;;;;;;3.55;2.28;;;12.90;95.00;;;;;;4972655;28;20137;-73
2023/05/20 02:48:27;;;;;;;6.45;2.65;;;12.90;94.90;;;;;;4993894;28;20042;-73
2023/05/20 02:50:53;;;;;;;4.53;2.47;;;12.90;95.10;;;;;;4968226;28;20057;-73
2023/05/20 02:53:18;;;;;;;4.05;2.28;;;12.90;95.10;;;;;;5011246;28;20042;-73
2023/05/20 02:55:47;;;;;;;5.53;2.50;;;12.90;95.20;;;;;;4976473;28;20049;-73
2023/05/20 02:58:13;;;;;;;4.15;2.20;;;12.90;95.20;;;;;;4958868;28;20049;-73
2023/05/20 03:00:39;;;;;;;5.45;2.78;;;12.90;95.30;;;;;;4990342;28;20363;-73
2023/05/20 03:03:09;;;;;;;4.57;2.22;;;12.80;95.30;;;;;;4972044;28;20034;-73
2023/05/20 03:05:36;;;;;;;4.55;2.50;;;12.90;95.40;;;;;;4966070;28;20049;-73
2023/05/20 03:08:08;;;;;;;4.57;2.50;;;12.90;95.40;;;;;;4966363;28;20080;-73
2023/05/20 03:10:35;;;;;;;6.07;2.78;;;12.90;95.40;;;;;;4986002;28;20070;-74
2023/05/20 03:13:01;;;;;;;4.68;2.13;;;12.90;95.50;;;;;;4972551;28;20050;-73
2023/05/20 03:15:26;;;;;;;6.32;2.40;;;12.90;95.50;;;;;;4937645;28;20046;-73
2023/05/20 03:17:52;;;;;;;4.22;2.33;;;12.90;95.50;;;;;;4969082;28;20054;-73
2023/05/20 03:20:19;;;;;;;5.97;2.70;;;12.80;95.50;;;;;;4953977;28;20053;-73
2023/05/20 03:22:45;;;;;;;4.75;2.28;;;12.80;95.50;;;;;;4950130;28;20399;-72
2023/05/20 03:25:10;;;;;;;6.25;2.40;;;12.70;95.60;;;;;;4986420;28;20056;-73
2023/05/20 03:27:36;;;;;;;4.03;2.08;;;12.70;95.80;;;;;;4976221;28;20046;-73
2023/05/20 03:30:03;;;;;;;5.13;2.40;;;12.70;95.80;;;;;;4997178;28;20054;-73
2023/05/20 03:32:29;;;;;;;3.80;1.90;;;12.70;95.70;;;;;;4966542;28;20089;-73
2023/05/20 03:34:57;;;;;;;6.47;2.25;;;12.70;95.80;;;;;;4956706;28;20482;-73
2023/05/20 03:37:22;;;;;;;5.95;2.38;;;12.70;95.60;;;;;;4982799;28;20446;-73
2023/05/20 03:39:48;;;;;;;4.63;2.10;;;12.70;95.60;;;;;;4975757;28;20042;-73
2023/05/20 03:42:14;;;;;;;4.78;2.33;;;12.70;95.60;;;;;;4951581;28;20047;-73
2023/05/20 03:44:40;;;;;;;4.05;2.20;;;12.60;95.60;;;;;;4984398;28;20041;-73
2023/05/20 03:47:06;;;;;;;5.43;2.15;;;12.60;95.60;;;;;;4990337;28;20057;-73
2023/05/20 03:49:31;;;;;;;4.88;2.50;;;12.60;95.80;;;;;;4973010;28;20050;-73
2023/05/20 03:51:57;;;;;;;4.72;2.45;;;12.60;95.60;;;;;;4968308;28;20057;-73
2023/05/20 03:54:23;;;;;;;4.32;2.10;;;12.60;95.60;;;;;;4955251;28;20065;-73
2023/05/20 03:56:50;;;;;;;7.10;2.55;;;12.60;95.70;;;;;;4952029;28;20048;-73
2023/05/20 03:59:17;;;;;;;5.55;2.15;;;12.60;95.70;;;;;;4990782;28;20057;-73
2023/05/20 04:01:42;;;;;;;5.40;2.38;;;12.50;95.80;;;;;;4980175;28;20069;-73
2023/05/20 04:04:08;;;;;;;6.22;2.53;;;12.50;95.70;;;;;;4952600;28;20128;-73
2023/05/20 04:06:34;;;;;;;4.35;2.22;;;12.50;95.70;;;;;;4991769;28;20052;-73
2023/05/20 04:09:00;;;;;;;5.43;2.55;;;12.50;95.70;;;;;;4979933;28;20494;-73
2023/05/20 04:11:26;;;;;;;5.07;2.22;;;12.50;95.80;;;;;;4985016;28;20151;-73
2023/05/20 04:13:52;;;;;;;5.60;2.28;;;12.50;95.90;;;;;;4955221;28;20057;-73
2023/05/20 04:16:17;;;;;;;6.10;2.20;;;12.40;95.90;;;;;;4961763;28;20053;-73
2023/05/20 04:18:44;;;;;;;3.38;2.00;;;12.40;95.90;;;;;;4942530;28;20192;-73
2023/05/20 04:21:10;;;;;;;6.07;2.22;;;12.40;95.90;;;;;;4968456;28;20053;-73
2023/05/20 04:23:36;;;;;;;5.82;2.10;;;12.40;95.90;;;;;;4972320;28;20042;-73
2023/05/20 04:26:02;;;;;;;5.82;2.10;;;12.40;96.10;;;;;;4976418;28;20135;-73
2023/05/20 04:28:30;;;;;;;6.70;2.40;;;12.40;96.20;;;;;;4977185;28;20198;-73
2023/05/20 04:31:03;;;;;;;5.00;2.50;;;12.40;96.40;;;;;;4991915;28;20046;-73
2023/05/20 04:33:29;;;;;;;6.97;2.55;;;12.40;96.30;;;;;;4963886;28;20045;-73
2023/05/20 04:35:57;;;;;;;3.45;2.08;;;12.40;96.30;;;;;;4998146;28;20065;-73
2023/05/20 04:38:28;;;;;;;4.28;2.42;;;12.40;96.40;;;;;;5008961;28;20041;-71
2023/05/20 04:41:00;;;;;;;6.13;2.63;;;12.40;96.50;;;;;;4964002;28;20048;-72
2023/05/20 04:43:28;;;;;;;4.88;2.30;;;12.30;96.50;;;;;;4944504;28;20059;-73
2023/05/20 04:45:58;;;;;;;5.63;2.70;;;12.30;96.50;;;;;;4982951;28;20046;-73
2023/05/20 04:48:24;;;;;;;4.15;2.22;;;12.30;96.40;;;;;;4968122;28;20104;-72
2023/05/20 04:50:50;;;;;;;4.30;2.58;;;12.30;96.50;;;;;;4961835;28;20045;-73
2023/05/20 04:53:17;;;;;;;6.45;2.55;;;12.30;96.50;;;;;;4966008;28;20057;-73
2023/05/20 04:55:44;;;;;;;6.60;2.40;;;12.30;96.60;;;;;;4975879;28;20061;-73
2023/05/20 04:58:14;;;;;;;4.95;2.58;;;12.30;96.70;;;;;;4985782;28;20107;-73
2023/05/20 05:00:43;;;;;;;6.18;2.63;;;12.30;96.80;;;;;;4977072;28;20038;-73
2023/05/20 05:03:09;;;;;;;6.18;2.60;;;12.30;96.80;;;;;;4991505;28;20237;-73
2023/05/20 05:05:39;;;;;;;3.55;2.20;;;12.30;96.80;;;;;;4961534;28;20456;-73
2023/05/20 05:08:05;;;;;;;5.95;2.63;;;12.30;97.00;;;;;;4974906;28;20046;-73
2023/05/20 05:10:31;;;;;;;4.78;2.40;;;12.30;97.00;;;;;;4966528;28;20045;-73
2023/05/20 05:12:57;;;;;;;5.90;2.47;;;12.30;97.20;;;;;;4983080;28;20045;-73
2023/05/20 05:15:23;;;;;;;4.70;2.65;;;12.40;97.20;;;;;;4978131;28;20430;-73
2023/05/20 05:17:50;;;;;;;5.65;2.40;;;12.40;97.40;;;;;;4958609;28;20041;-73
2023/05/20 05:20:16;;;;;;;4.82;3.20;;;12.40;97.50;;;;;;4975621;28;20431;-73
2023/05/20 05:22:41;;;;;;;8.73;2.92;;;12.40;97.50;;;;;;4969525;28;20038;-73
2023/05/20 05:25:08;;;;;;;5.00;2.50;;;12.40;97.60;;;;;;4978320;28;20034;-74
2023/05/20 05:27:36;;;;;;;5.90;2.90;;;12.40;97.60;;;;;;4947139;28;20034;-73
2023/05/20 05:30:02;;;;;;;;;;;12.50;97.70;;;;;;4996068;28;20049;-73
2023/05/20 05:32:28;;;;;;;5.40;3.05;;;12.50;97.70;;;;;;5000555;28;20036;-73
2023/05/20 05:34:54;;;;;;;8.88;3.00;;;12.50;97.90;;;;;;4961912;28;20137;-73
2023/05/20 05:37:20;;;;;;;6.35;3.00;;;12.50;98.00;;;;;;5004695;28;20050;-73
2023/05/20 05:39:46;;;;;;;6.13;3.17;;;12.50;98.00;;;;;;4981688;28;20060;-73
2023/05/20 05:42:11;;;;;;;6.97;3.10;;;12.60;98.10;;;;;;4962819;28;20049;-73
2023/05/20 05:44:37;;;;;;;7.38;3.28;;;12.60;98.10;;;;;;4975792;28;20046;-73
2023/05/20 05:47:04;;;;;;;6.90;3.08;;;12.60;98.00;;;;;;4972598;28;20050;-73
2023/05/20 05:49:30;;;;;;;6.32;3.60;;;12.60;98.20;;;;;;4956853;28;20526;-73
2023/05/20 05:51:55;;;;;;;6.40;3.03;;;12.60;98.40;;;;;;4961205;28;20080;-73
2023/05/20 05:54:21;;;;;;;9.80;3.45;;;12.70;98.30;;;;;;4964626;28;20061;-73
2023/05/20 05:56:47;;;;;;;9.68;3.70;;;12.70;98.50;;;;;;4962823;28;20509;-73
2023/05/20 05:59:14;;;;;;;8.90;4.43;;;12.80;98.40;;;;;;5003246;28;20141;-73
2023/05/20 06:01:40;;;;;;;8.38;4.10;;;12.80;98.60;;;;;;4971575;28;20045;-73
2023/05/20 06:04:05;;;;;;;7.63;4.00;;;12.90;98.50;;;;;;4994599;28;20041;-73
2023/05/20 06:06:32;;;;;;;12.38;4.57;;;13.00;98.70;;;;;;4959376;28;20101;-73
2023/05/20 06:08:57;;;;;;;7.25;4.50;;;13.00;98.60;;;;;;4973773;28;20050;-73
2023/05/20 06:11:23;;;;;;;7.43;4.05;;;13.10;98.80;;;;;;4967776;28;20042;-73
2023/05/20 06:13:49;;;;;;;5.78;3.78;;;13.20;98.90;;;;;;4977255;28;20060;-73
2023/05/20 06:16:15;;;;;;;9.00;5.15;;;13.20;99.00;;;;;;4959722;28;20058;-73
2023/05/20 06:18:41;;;;;;;11.23;5.20;;;13.30;98.90;;;;;;4977860;28;20045;-73
2023/05/20 06:21:07;;;;;;;8.15;4.32;;;13.40;99.10;;;;;;4979198;28;20049;-75
2023/05/20 06:23:33;;;;;;;7.20;4.13;;;13.40;99.00;;;;;;4985164;28;20060;-74
2023/05/20 06:25:59;;;;;;;8.13;4.78;;;13.50;99.20;;;;;;4991745;28;20612;-75
2023/05/20 06:28:25;;;;;;;6.10;4.63;;;13.60;99.00;;;;;;4976553;28;20046;-75
2023/05/20 06:30:53;;;;;;;7.57;5.10;;;13.70;99.00;;;;;;4957242;28;20046;-74
2023/05/20 06:33:24;;;;;;;7.13;4.93;;;13.70;98.70;;;;;;4978762;28;20070;-76
2023/05/20 06:35:51;;;;;;;9.00;4.53;;;13.80;98.70;;;;;;4975897;28;20772;-74
2023/05/20 06:38:17;;;;;;;10.18;4.97;;;13.90;98.90;;;;;;4955556;28;20399;-75
2023/05/20 06:40:43;;;;;;;10.93;5.40;;;14.00;98.80;;;;;;4974764;28;20046;-75
2023/05/20 06:43:09;;;;;;;14.15;5.55;;;14.00;98.50;;;;;;4983493;28;20041;-76
2023/05/20 06:45:35;;;;;;;10.52;5.82;;;14.10;98.40;;;;;;4961212;28;20042;-76
2023/05/20 06:48:00;;;;;;;12.40;5.97;;;14.10;98.50;;;;;;4961341;28;20038;-75
2023/05/20 06:50:27;;;;;;;9.25;5.50;;;14.20;98.30;;;;;;4960780;28;20042;-75
2023/05/20 06:52:53;;;;;;;9.07;5.35;;;14.30;98.20;;;;;;5003903;28;20041;-74
2023/05/20 06:55:19;;;;;;;15.57;6.03;;;14.30;98.30;;;;;;4954694;28;20073;-75
2023/05/20 06:57:44;;;;;;;10.63;5.88;;;14.40;98.30;;;;;;4943785;28;20052;-74
2023/05/20 07:00:12;;;;;;;8.60;5.20;;;14.40;98.40;;;;;;4972880;28;20045;-74
2023/05/20 07:02:38;;;;;;;10.13;4.93;;;14.50;98.40;;;;;;4975436;28;20042;-74
2023/05/20 07:05:04;;;;;;;10.25;5.10;;;14.60;98.40;;;;;;4942702;28;20760;-74
2023/05/20 07:07:30;;;;;;;8.48;5.40;;;14.60;98.20;;;;;;4976496;28;20048;-74
2023/05/20 07:09:56;;;;;;;6.95;4.47;;;14.60;98.50;;;;;;4996247;28;20041;-74
2023/05/20 07:12:22;;;;;;;10.80;5.80;;;14.70;98.40;;;;;;4978084;28;20133;-74
2023/05/20 07:14:47;;;;;;;8.43;5.75;;;14.70;98.20;;;;;;4950809;28;20796;-75
2023/05/20 07:17:13;;;;;;;7.75;5.28;;;14.80;97.90;;;;;;4977122;28;20371;-75
2023/05/20 07:19:39;;;;;;;8.00;5.50;;;14.80;98.00;;;;;;4988209;28;20047;-76
2023/05/20 07:22:05;;;;;;;9.73;6.05;;;14.80;97.90;;;;;;4949525;28;20133;-74
2023/05/20 07:24:31;;;;;;;10.00;5.68;;;14.80;97.90;;;;;;4958452;28;20050;-74
2023/05/20 07:26:56;;;;;;;7.88;5.93;;;14.80;98.10;;;;;;5006406;28;20056;-74
2023/05/20 07:29:22;;;;;;;9.80;5.97;;;14.70;98.10;;;;;;4972872;28;20050;-77
2023/05/20 07:31:48;;;;;;;10.63;5.55;;;14.80;98.20;;;;;;4956356;28;20045;-76
2023/05/20 07:34:14;;;;;;;7.53;5.50;;;14.80;98.10;;;;;;4955083;28;20053;-77
2023/05/20 07:36:39;;;;;;;10.73;6.25;;;14.80;98.10;;;;;;4967399;28;20049;-75
2023/05/20 07:39:05;;;;;;;11.15;6.30;;;14.80;98.10;;;;;;4953575;28;20108;-73
2023/05/20 07:41:31;;;;;;;11.40;6.32;;;14.70;98.30;;;;;;4949250;28;20099;-72
2023/05/20 07:43:57;;;;;;;10.30;5.95;;;14.70;98.30;;;;;;4989958;28;20046;-73
2023/05/20 07:46:23;;;;;;;9.23;6.13;;;14.70;98.10;;;;;;4980311;28;20115;-73
2023/05/20 07:48:48;;;;;;;9.10;6.13;;;14.70;98.60;;;;;;4979282;28;20674;-73
2023/05/20 07:51:14;;;;;;;6.93;5.32;;;14.60;98.60;;;;;;4973903;28;20046;-74
2023/05/20 07:53:40;;;;;;;8.98;6.35;;;14.50;98.40;;;;;;4981247;28;20455;-73
2023/05/20 07:56:06;;;;;;;10.07;6.15;;;14.50;98.50;;;;;;4960994;28;20129;-73
2023/05/20 07:58:31;;;;;;;9.32;5.82;;;14.50;98.30;;;;;;4970872;28;20042;-73
2023/05/20 08:00:57;;;;;;;9.40;5.28;;;14.50;98.40;;;;;;4980552;28;20041;-73
2023/05/20 08:03:23;;;;;;;9.32;5.20;;;14.50;98.50;;;;;;4989750;28;20061;-73
2023/05/20 08:05:49;;;;;;;9.13;5.28;;;14.40;98.50;;;;;;4970263;28;20057;-73
2023/05/20 08:08:16;;;;;;;8.88;4.90;;;14.40;98.60;;;;;;4969858;28;20061;-73
2023/05/20 08:10:41;;;;;;;7.40;4.78;;;14.50;98.60;;;;;;4984454;28;20133;-73
2023/05/20 08:13:07;;;;;;;9.40;5.53;;;14.40;98.70;;;;;;4954354;28;20225;-73
2023/05/20 08:15:33;;;;;;;9.15;4.93;;;14.50;98.50;;;;;;4951546;28;20057;-73
2023/05/20 08:17:59;;;;;;;7.70;4.53;;;14.50;98.50;;;;;;4945668;28;20129;-73
2023/05/20 08:20:25;;;;;;;8.27;5.00;;;14.60;98.60;;;;;;4963363;28;20476;-73
2023/05/20 08:22:51;;;;;;;7.30;4.95;;;14.60;98.60;;;;;;4956977;28;20700;-72
2023/05/20 08:25:17;;;;;;;7.82;4.22;;;14.70;98.60;;;;;;4971369;28;20042;-73
2023/05/20 08:27:42;;;;;;;9.27;4.97;;;14.70;98.70;;;;;;4989193;28;20367;-73
2023/05/20 08:30:09;;;;;;;9.02;4.90;;;14.80;98.80;;;;;;4966783;28;20097;-73
2023/05/20 08:32:36;;;;;;;6.13;3.80;;;14.90;98.50;;;;;;5006875;28;20042;-73
2023/05/20 08:35:02;;;;;;;8.98;4.55;;;15.00;98.50;;;;;;4989627;28;20045;-73
2023/05/20 08:37:28;;;;;;;6.50;3.92;;;15.10;98.40;;;;;;4974140;28;20046;-73
2023/05/20 08:39:55;;;;;;;7.38;4.20;;;15.10;98.40;;;;;;4953575;28;20068;-74
2023/05/20 08:42:22;;;;;;;6.25;4.00;;;15.20;98.30;;;;;;4956570;28;20046;-73
2023/05/20 08:44:47;;;;;;;11.80;4.40;;;15.30;98.40;;;;;;4958022;28;20053;-74
2023/05/20 08:47:13;;;;;;;11.85;4.70;;;15.30;98.00;;;;;;4955645;28;20073;-73
2023/05/20 08:49:39;;;;;;;7.15;4.55;;;15.30;97.80;;;;;;4990312;28;20332;-72
2023/05/20 08:52:05;;;;;;;7.05;4.45;;;15.40;97.80;;;;;;4964176;28;20126;-72
2023/05/20 08:54:43;;;;;;;7.68;4.40;;;15.40;97.90;;;;;;4962771;28;20058;-72
2023/05/20 08:57:12;;;;;;;;;;;15.50;98.10;;;;;;4949735;28;20042;-73
2023/05/20 08:59:48;;;;;;;8.45;4.60;;;15.40;97.80;;;;;;4994291;28;19913;-73
2023/05/20 09:02:14;;;;;;;8.20;3.75;;;15.50;97.60;;;;;;4992854;28;20037;-73
2023/05/20 09:04:40;;;;;;;6.53;3.88;;;15.50;97.50;;;;;;4971154;28;20355;-73
2023/05/20 09:07:05;;;;;;;8.73;4.18;;;15.50;97.50;;;;;;4989689;28;20056;-73
2023/05/20 09:09:34;;;;;;;8.35;4.30;;;15.50;97.80;;;;;;4940665;28;20053;-73
2023/05/20 09:12:01;;;;;;;6.82;4.43;;;15.50;97.80;;;;;;4972444;28;20041;-73
2023/05/20 09:14:28;;;;;;;9.30;4.57;;;15.60;97.80;;;;;;4944449;28;20042;-73
2023/05/20 09:16:54;;;;;;;7.10;4.70;;;15.50;98.20;;;;;;4957536;28;20386;-73
2023/05/20 09:19:21;;;;;;;7.13;5.18;;;15.60;98.10;;;;;;5006705;28;20038;-73
2023/05/20 09:21:47;;;;;;;9.57;5.07;;;15.50;97.90;;;;;;4994425;28;20117;-73
2023/05/20 09:24:13;;;;;;;8.38;4.70;;;15.60;97.80;;;;;;4972817;28;20181;-72
2023/05/20 09:26:38;;;;;;;8.75;4.88;;;15.60;98.00;;;;;;4955286;28;20054;-73
2023/05/20 09:29:04;;;;;;;9.93;4.85;;;15.60;98.00;;;;;;4958147;28;20057;-73
2023/05/20 09:31:32;;;;;;;6.50;4.63;;;15.70;97.90;;;;;;5008891;28;20053;-73
2023/05/20 09:33:59;;;;;;;11.05;4.63;;;15.80;98.10;;;;;;4972415;28;20054;-73
2023/05/20 09:36:27;;;;;;;8.88;4.30;;;15.80;98.00;;;;;;4954769;28;20124;-73
2023/05/20 09:38:56;;;;;;;7.30;4.38;;;15.80;97.80;;;;;;4981191;28;20045;-73
2023/05/20 09:41:22;;;;;;;8.93;4.53;;;15.90;97.80;;;;;;4964430;28;20042;-73
2023/05/20 09:43:48;;;;;;;8.38;4.65;;;16.00;97.70;;;;;;4981784;28;20042;-73
2023/05/20 09:46:14;;;;;;;8.98;4.40;;;16.00;98.10;;;;;;4997535;28;20382;-73
2023/05/20 09:48:39;;;;;;;8.07;4.47;;;16.00;97.90;;;;;;4986583;28;20453;-73
2023/05/20 09:51:06;;;;;;;8.40;4.13;;;16.10;97.90;;;;;;4976562;28;20481;-73
2023/05/20 09:53:32;;;;;;;5.47;3.80;;;16.10;97.30;;;;;;4971674;28;20057;-73
2023/05/20 09:55:58;;;;;;;9.50;3.97;;;16.10;97.50;;;;;;4955166;28;20046;-72
2023/05/20 09:58:24;;;;;;;6.78;4.30;;;16.10;97.20;;;;;;4972733;28;20770;-72
2023/05/20 10:00:50;;;;;;;9.25;4.22;;;16.10;97.40;;;;;;4979341;28;20057;-73
2023/05/20 10:03:17;;;;;;;8.30;4.18;;;16.10;97.20;;;;;;4982311;28;20045;-73
2023/05/20 10:05:47;;;;;;;6.45;4.00;;;16.10;97.50;;;;;;4979795;28;20087;-73
2023/05/20 10:08:25;;;;;;;6.40;4.20;;;16.20;97.30;;;;;;4977684;28;20045;-73
2023/05/20 10:11:18;;;;;;;7.65;4.35;;;16.10;97.30;;;;;;4966851;28;20494;-73
2023/05/20 10:14:16;;;;;;;8.55;4.13;;;16.10;97.50;;;;;;4966666;28;20046;-73
2023/05/20 10:17:24;;;;;;;6.15;4.35;;;16.20;97.60;;;;;;4959765;28;20462;-72
2023/05/20 10:19:50;;;;;;;8.50;3.95;;;16.20;97.30;;;;;;4969613;28;20077;-73
2023/05/20 10:22:25;;;;;;;7.22;3.95;;;16.20;97.40;;;;;;4958472;28;20100;-73
2023/05/20 10:24:57;;;;;;;7.65;4.43;;;16.10;97.10;;;;;;4958610;28;20039;-73
2023/05/20 10:27:23;;;;;;;8.55;3.80;;;16.20;97.50;;;;;;4976103;28;20042;-73
2023/05/20 10:29:53;;;;;;;8.05;4.18;;;16.20;97.30;;;;;;4978672;28;20049;-73
2023/05/20 10:32:26;;;;;;;5.68;4.05;;;16.30;97.30;;;;;;4998384;28;20489;-73
2023/05/20 10:34:52;;;;;;;11.32;4.45;;;16.20;97.00;;;;;;4965314;28;20057;-73
2023/05/20 10:37:26;;;;;;;7.00;3.95;;;16.30;97.10;;;;;;4963279;28;20057;-73
2023/05/20 10:40:01;;;;;;;6.97;4.20;;;16.30;96.90;;;;;;4990687;28;20070;-73
2023/05/20 10:42:28;;;;;;;6.35;4.28;;;16.30;97.30;;;;;;4964520;28;20046;-73
2023/05/20 10:44:54;;;;;;;7.70;4.88;;;16.30;96.90;;;;;;4966840;28;20041;-74
2023/05/20 10:47:20;;;;;;;7.35;4.50;;;16.30;96.80;;;;;;4965943;28;20124;-73
2023/05/20 10:49:46;;;;;;;9.88;5.35;;;16.30;96.80;;;;;;4955795;28;20129;-74
2023/05/20 10:52:12;;;;;;;7.47;4.72;;;16.30;96.80;;;;;;4982423;28;20053;-73
2023/05/20 10:55:04;;;;;;;7.00;4.45;;;16.30;96.90;;;;;;4964111;28;20372;-73
2023/05/20 10:57:31;;;;;;;7.90;5.10;;;16.20;96.80;;;;;;4979842;28;20074;-73
2023/05/20 10:59:57;;;;;;;6.97;4.65;;;16.20;97.20;;;;;;4992172;28;20061;-74
2023/05/20 11:02:25;;;;;;;8.55;4.78;;;16.30;97.00;;;;;;4973419;28;20108;-74
2023/05/20 11:04:52;;;;;;;7.47;4.60;;;16.30;97.20;;;;;;4988404;28;20055;-74
2023/05/20 11:07:27;;;;;;;7.40;5.03;;;16.30;96.90;;;;;;4976668;28;20465;-73
2023/05/20 11:09:54;;;;;;;9.68;5.32;;;16.30;97.10;;;;;;4985143;28;20054;-73
2023/05/20 11:12:21;;;;;;;11.23;6.45;;;16.30;97.10;;;;;;4991040;28;20045;-74
2023/05/20 11:14:48;;;;;;;8.07;5.82;;;16.30;97.00;;;;;;4995036;28;20038;-74
2023/05/20 11:17:15;;;;;;;10.57;4.70;;;16.30;97.00;;;;;;4995410;28;20046;-74
2023/05/20 11:19:40;;;;;;;7.43;5.00;;;16.30;97.10;;;;;;4998510;28;20042;-73
2023/05/20 11:22:08;;;;;;;7.05;4.35;;;16.40;97.20;;;;;;4980010;28;20468;-74
2023/05/20 11:24:33;;;;;;;6.82;4.80;;;16.40;97.10;;;;;;4977728;28;20057;-74
2023/05/20 11:27:00;;;;;;;9.05;4.68;;;16.50;97.00;;;;;;4965019;28;20054;-74
2023/05/20 11:29:26;;;;;;;9.35;5.03;;;16.50;96.90;;;;;;4971675;28;20046;-74
2023/05/20 11:31:51;;;;;;;8.25;4.97;;;16.50;96.80;;;;;;4971428;28;20053;-74
2023/05/20 11:34:24;;;;;;;10.88;5.20;;;16.50;97.10;;;;;;4986539;28;20061;-74
2023/05/20 11:36:56;;;;;;;7.53;4.63;;;16.50;97.00;;;;;;4980056;28;20121;-74
2023/05/20 11:39:22;;;;;;;8.20;4.63;;;16.40;97.10;;;;;;4989608;28;20045;-73
2023/05/20 11:41:48;;;;;;;6.57;4.50;;;16.40;97.10;;;;;;4978010;28;20042;-74
2023/05/20 11:44:13;;;;;;;8.38;4.47;;;16.40;97.20;;;;;;4993512;28;20042;-74
2023/05/20 11:46:44;;;;;;;6.65;4.40;;;16.40;97.20;;;;;;4967895;28;20046;-73
2023/05/20 11:49:11;;;;;;;6.53;4.30;;;16.50;97.10;;;;;;4993925;28;20377;-74
2023/05/20 11:51:38;;;;;;;8.40;4.72;;;16.60;97.20;;;;;;4962699;28;20527;-74
2023/05/20 11:54:07;;;;;;;7.07;4.47;;;16.60;96.90;;;;;;5000246;28;20143;-74
2023/05/20 11:56:33;;;;;;;10.50;5.22;;;16.60;96.90;;;;;;4978319;28;20089;-75
2023/05/20 11:59:00;;;;;;;9.80;5.50;;;16.60;96.60;;;;;;4954181;28;20050;-74
2023/05/20 12:01:28;;;;;;;8.05;4.95;;;16.60;96.70;;;;;;4951368;28;20053;-74
2023/05/20 12:03:53;;;;;;;8.75;4.85;;;16.50;96.60;;;;;;4987834;28;20054;-73
2023/05/20 12:06:19;;;;;;;9.73;4.60;;;16.50;96.80;;;;;;4989548;28;20057;-74
2023/05/20 12:08:46;;;;;;;7.70;4.90;;;16.50;96.70;;;;;;4951508;28;20046;-75
2023/05/20 12:11:12;;;;;;;8.80;4.85;;;16.50;96.60;;;;;;4995768;28;20049;-75
2023/05/20 12:13:38;;;;;;;11.18;4.88;;;16.50;96.50;;;;;;4964841;28;20518;-75
2023/05/20 12:16:04;;;;;;;9.95;4.97;;;16.60;96.50;;;;;;4978680;28;20046;-74
2023/05/20 12:18:33;;;;;;;6.70;4.60;;;16.60;96.50;;;;;;4950376;28;20066;-75
2023/05/20 12:20:59;;;;;;;7.82;4.80;;;16.60;96.70;;;;;;4972277;28;20047;-75
2023/05/20 12:23:25;;;;;;;8.38;5.07;;;16.60;96.40;;;;;;4976659;28;20081;-75
2023/05/20 12:25:51;;;;;;;7.88;5.00;;;16.60;96.50;;;;;;4951713;28;20468;-74
2023/05/20 12:28:17;;;;;;;9.20;5.18;;;16.60;96.50;;;;;;4970511;28;20054;-74
2023/05/20 12:30:43;;;;;;;9.32;5.05;;;16.50;96.60;;;;;;4953293;28;20058;-75
2023/05/20 12:33:08;;;;;;;10.93;4.97;;;16.60;96.70;;;;;;4995717;28;20080;-75
2023/05/20 12:35:39;;;;;;;9.20;4.78;;;16.60;96.80;;;;;;4991934;28;20415;-75
2023/05/20 12:38:05;;;;;;;8.02;4.68;;;16.70;96.70;;;;;;4955185;28;20057;-75
2023/05/20 12:40:31;;;;;;;10.30;4.90;;;16.70;96.60;;;;;;4978769;28;20483;-74
2023/05/20 12:42:57;;;;;;;7.63;4.75;;;16.70;96.70;;;;;;4973578;28;20049;-74
2023/05/20 12:45:23;;;;;;;7.10;4.90;;;16.70;96.80;;;;;;4975621;28;20039;-74